This is the latest recevied weather packets stored in our database for station/object M0XZS-2. If no packets are shown the sender has not sent any weather packets the latest 1 day(s).
| Time | Temp. | Humidity | Pressure | Rain* | Wind** | Luminosity | Snow |
|---|---|---|---|---|---|---|---|
| 1778095373 | 16.67° C | 34% | 1019.1 hPa | - | - | - | - |
| 1778094473 | 17.78° C | 33% | 1019 hPa | - | - | - | - |
| 1778093573 | 17.78° C | 32% | 1018.9 hPa | - | - | - | - |
| 1778092673 | 18.89° C | 31% | 1019 hPa | - | - | - | - |
| 1778091773 | 18.33° C | 32% | 1019 hPa | - | - | - | - |
| 1778090873 | 18.89° C | 32% | 1019 hPa | - | - | - | - |
| 1778085472 | 20° C | 29% | 1019.1 hPa | - | - | - | - |
| 1778081872 | 22.78° C | 28% | 1019.1 hPa | - | - | - | - |
| 1778079171 | 23.33° C | 27% | 1019.1 hPa | - | - | - | - |
| 1778074671 | 23.33° C | 27% | 1019.3 hPa | - | - | - | - |
| 1778071971 | 21.11° C | 30% | 1019.2 hPa | - | - | - | - |
| 1778071071 | 21.11° C | 31% | 1019.3 hPa | - | - | - | - |
| 1778070171 | 21.11° C | 30% | 1019.3 hPa | - | - | - | - |
| 1778058469 | 15.56° C | 38% | 1019.5 hPa | - | - | - | - |
| 1778057569 | 15° C | 40% | 1019.4 hPa | - | - | - | - |
| 1778056672 | 14.44° C | 40% | 1019.4 hPa | - | - | - | - |
| 1778055772 | 14.44° C | 41% | 1019.3 hPa | - | - | - | - |
| 1778054872 | 13.89° C | 41% | 1019.3 hPa | - | - | - | - |
| 1778053972 | 13.89° C | 41% | 1019.2 hPa | - | - | - | - |
| 1778046771 | 11.67° C | 45% | 1018.6 hPa | - | - | - | - |
| 1778045871 | 11.67° C | 45% | 1018.6 hPa | - | - | - | - |
| 1778044971 | 11.67° C | 45% | 1018.5 hPa | - | - | - | - |
| 1778043171 | 11.67° C | 45% | 1018.5 hPa | - | - | - | - |
| 1778042271 | 11.67° C | 45% | 1018.4 hPa | - | - | - | - |
| 1778040470 | 11.67° C | 45% | 1018.5 hPa | - | - | - | - |
* Rain since midnight (hover to see other rain measurements)
** Current wind speed in m/s (hover to see current wind gust speed)